sensor_id;sensor_type;location;lat;lon;timestamp;P1;durP1;ratioP1;P2;durP2;ratioP2
46334;SDS011;32051;48.882;9.210;2024-02-28T00:00:37;15.60;;;12.10;;
46334;SDS011;32051;48.882;9.210;2024-02-28T00:03:03;21.67;;;12.23;;
46334;SDS011;32051;48.882;9.210;2024-02-28T00:05:29;20.42;;;12.27;;
46334;SDS011;32051;48.882;9.210;2024-02-28T00:07:56;15.98;;;12.55;;
46334;SDS011;32051;48.882;9.210;2024-02-28T00:10:21;20.75;;;14.18;;
46334;SDS011;32051;48.882;9.210;2024-02-28T00:12:47;16.05;;;12.75;;
46334;SDS011;32051;48.882;9.210;2024-02-28T00:15:13;19.40;;;13.63;;
46334;SDS011;32051;48.882;9.210;2024-02-28T00:17:39;23.15;;;13.40;;
46334;SDS011;32051;48.882;9.210;2024-02-28T00:20:06;17.83;;;12.93;;
46334;SDS011;32051;48.882;9.210;2024-02-28T00:22:33;19.20;;;12.43;;
46334;SDS011;32051;48.882;9.210;2024-02-28T00:25:00;21.05;;;12.35;;
46334;SDS011;32051;48.882;9.210;2024-02-28T00:27:26;22.27;;;13.85;;
46334;SDS011;32051;48.882;9.210;2024-02-28T00:29:52;18.65;;;13.85;;
46334;SDS011;32051;48.882;9.210;2024-02-28T00:32:17;18.13;;;14.13;;
46334;SDS011;32051;48.882;9.210;2024-02-28T00:34:43;16.00;;;12.93;;
46334;SDS011;32051;48.882;9.210;2024-02-28T00:37:09;20.70;;;13.73;;
46334;SDS011;32051;48.882;9.210;2024-02-28T00:39:35;21.83;;;14.18;;
46334;SDS011;32051;48.882;9.210;2024-02-28T00:42:00;19.77;;;13.57;;
46334;SDS011;32051;48.882;9.210;2024-02-28T00:44:26;15.82;;;13.48;;
46334;SDS011;32051;48.882;9.210;2024-02-28T00:46:52;18.85;;;13.60;;
46334;SDS011;32051;48.882;9.210;2024-02-28T00:49:17;22.88;;;14.68;;
46334;SDS011;32051;48.882;9.210;2024-02-28T00:51:43;20.95;;;14.43;;
46334;SDS011;32051;48.882;9.210;2024-02-28T00:54:09;19.83;;;13.52;;
46334;SDS011;32051;48.882;9.210;2024-02-28T00:56:34;22.27;;;14.23;;
46334;SDS011;32051;48.882;9.210;2024-02-28T00:59:00;21.55;;;14.50;;
46334;SDS011;32051;48.882;9.210;2024-02-28T01:01:26;25.48;;;14.65;;
46334;SDS011;32051;48.882;9.210;2024-02-28T01:03:51;21.90;;;14.63;;
46334;SDS011;32051;48.882;9.210;2024-02-28T01:06:17;23.38;;;16.08;;
46334;SDS011;32051;48.882;9.210;2024-02-28T01:08:42;17.90;;;14.30;;
46334;SDS011;32051;48.882;9.210;2024-02-28T01:11:08;20.20;;;13.05;;
46334;SDS011;32051;48.882;9.210;2024-02-28T01:13:35;17.58;;;14.38;;
46334;SDS011;32051;48.882;9.210;2024-02-28T01:16:01;22.45;;;14.63;;
46334;SDS011;32051;48.882;9.210;2024-02-28T01:18:27;20.48;;;13.82;;
46334;SDS011;32051;48.882;9.210;2024-02-28T01:20:55;21.40;;;14.50;;
46334;SDS011;32051;48.882;9.210;2024-02-28T01:23:21;22.25;;;13.80;;
46334;SDS011;32051;48.882;9.210;2024-02-28T01:25:48;20.77;;;14.85;;
46334;SDS011;32051;48.882;9.210;2024-02-28T01:28:13;19.13;;;14.68;;
46334;SDS011;32051;48.882;9.210;2024-02-28T01:30:39;20.00;;;14.25;;
46334;SDS011;32051;48.882;9.210;2024-02-28T01:33:04;23.58;;;15.00;;
46334;SDS011;32051;48.882;9.210;2024-02-28T01:35:30;19.10;;;13.98;;
46334;SDS011;32051;48.882;9.210;2024-02-28T01:37:56;18.98;;;14.18;;
46334;SDS011;32051;48.882;9.210;2024-02-28T01:40:21;21.65;;;14.57;;
46334;SDS011;32051;48.882;9.210;2024-02-28T01:42:47;22.25;;;14.85;;
46334;SDS011;32051;48.882;9.210;2024-02-28T01:45:13;24.52;;;15.43;;
46334;SDS011;32051;48.882;9.210;2024-02-28T01:47:40;21.85;;;14.50;;
46334;SDS011;32051;48.882;9.210;2024-02-28T01:50:07;23.73;;;14.95;;
46334;SDS011;32051;48.882;9.210;2024-02-28T01:52:34;21.58;;;14.45;;
46334;SDS011;32051;48.882;9.210;2024-02-28T01:55:02;25.77;;;15.75;;
46334;SDS011;32051;48.882;9.210;2024-02-28T01:57:28;25.27;;;14.50;;
46334;SDS011;32051;48.882;9.210;2024-02-28T01:59:54;23.92;;;13.50;;
46334;SDS011;32051;48.882;9.210;2024-02-28T02:02:21;17.92;;;14.02;;
46334;SDS011;32051;48.882;9.210;2024-02-28T02:04:47;21.48;;;14.90;;
46334;SDS011;32051;48.882;9.210;2024-02-28T02:07:12;24.83;;;15.10;;
46334;SDS011;32051;48.882;9.210;2024-02-28T02:09:38;23.33;;;15.98;;
46334;SDS011;32051;48.882;9.210;2024-02-28T02:12:04;28.38;;;16.85;;
46334;SDS011;32051;48.882;9.210;2024-02-28T02:14:30;25.08;;;15.32;;
46334;SDS011;32051;48.882;9.210;2024-02-28T02:16:56;24.90;;;15.98;;
46334;SDS011;32051;48.882;9.210;2024-02-28T02:19:21;21.33;;;15.10;;
46334;SDS011;32051;48.882;9.210;2024-02-28T02:21:49;22.20;;;15.95;;
46334;SDS011;32051;48.882;9.210;2024-02-28T02:24:16;22.73;;;14.90;;
46334;SDS011;32051;48.882;9.210;2024-02-28T02:26:42;25.90;;;14.70;;
46334;SDS011;32051;48.882;9.210;2024-02-28T02:29:10;24.33;;;15.18;;
46334;SDS011;32051;48.882;9.210;2024-02-28T02:31:36;20.48;;;13.77;;
46334;SDS011;32051;48.882;9.210;2024-02-28T02:34:02;21.40;;;14.68;;
46334;SDS011;32051;48.882;9.210;2024-02-28T02:36:28;23.27;;;13.80;;
46334;SDS011;32051;48.882;9.210;2024-02-28T02:38:54;20.15;;;14.90;;
46334;SDS011;32051;48.882;9.210;2024-02-28T02:41:20;22.25;;;14.98;;
46334;SDS011;32051;48.882;9.210;2024-02-28T02:43:46;27.45;;;14.60;;
46334;SDS011;32051;48.882;9.210;2024-02-28T02:46:11;20.60;;;14.10;;
46334;SDS011;32051;48.882;9.210;2024-02-28T02:48:37;21.20;;;14.77;;
46334;SDS011;32051;48.882;9.210;2024-02-28T02:51:03;22.23;;;14.85;;
46334;SDS011;32051;48.882;9.210;2024-02-28T02:53:28;21.35;;;14.70;;
46334;SDS011;32051;48.882;9.210;2024-02-28T02:55:54;20.20;;;12.60;;
46334;SDS011;32051;48.882;9.210;2024-02-28T02:58:20;23.77;;;13.85;;
46334;SDS011;32051;48.882;9.210;2024-02-28T03:00:45;18.63;;;13.82;;
46334;SDS011;32051;48.882;9.210;2024-02-28T03:03:11;24.05;;;14.77;;
46334;SDS011;32051;48.882;9.210;2024-02-28T03:05:36;19.42;;;14.23;;
46334;SDS011;32051;48.882;9.210;2024-02-28T03:08:02;18.98;;;14.32;;
46334;SDS011;32051;48.882;9.210;2024-02-28T03:10:28;18.02;;;12.60;;
46334;SDS011;32051;48.882;9.210;2024-02-28T03:12:54;26.48;;;14.18;;
46334;SDS011;32051;48.882;9.210;2024-02-28T03:15:20;19.98;;;14.35;;
46334;SDS011;32051;48.882;9.210;2024-02-28T03:17:45;22.20;;;13.80;;
46334;SDS011;32051;48.882;9.210;2024-02-28T03:20:11;16.40;;;12.70;;
46334;SDS011;32051;48.882;9.210;2024-02-28T03:22:39;19.52;;;13.13;;
46334;SDS011;32051;48.882;9.210;2024-02-28T03:25:06;25.15;;;15.13;;
46334;SDS011;32051;48.882;9.210;2024-02-28T03:27:32;20.02;;;12.77;;
46334;SDS011;32051;48.882;9.210;2024-02-28T03:29:58;23.08;;;14.13;;
46334;SDS011;32051;48.882;9.210;2024-02-28T03:32:23;18.65;;;13.45;;
46334;SDS011;32051;48.882;9.210;2024-02-28T03:34:49;19.63;;;12.88;;
46334;SDS011;32051;48.882;9.210;2024-02-28T03:37:14;19.48;;;13.57;;
46334;SDS011;32051;48.882;9.210;2024-02-28T03:39:40;21.17;;;13.68;;
46334;SDS011;32051;48.882;9.210;2024-02-28T03:42:06;18.60;;;13.30;;
46334;SDS011;32051;48.882;9.210;2024-02-28T03:44:32;22.00;;;13.50;;
46334;SDS011;32051;48.882;9.210;2024-02-28T03:46:57;20.02;;;13.75;;
46334;SDS011;32051;48.882;9.210;2024-02-28T03:49:23;18.13;;;12.98;;
46334;SDS011;32051;48.882;9.210;2024-02-28T03:51:49;24.48;;;14.68;;
46334;SDS011;32051;48.882;9.210;2024-02-28T03:54:15;22.52;;;13.73;;
46334;SDS011;32051;48.882;9.210;2024-02-28T03:56:41;17.90;;;13.43;;
46334;SDS011;32051;48.882;9.210;2024-02-28T03:59:07;20.38;;;13.82;;
46334;SDS011;32051;48.882;9.210;2024-02-28T04:01:33;18.77;;;13.40;;
46334;SDS011;32051;48.882;9.210;2024-02-28T04:04:00;21.05;;;13.77;;
46334;SDS011;32051;48.882;9.210;2024-02-28T04:06:26;20.05;;;12.73;;
46334;SDS011;32051;48.882;9.210;2024-02-28T04:08:52;17.30;;;13.00;;
46334;SDS011;32051;48.882;9.210;2024-02-28T04:11:18;16.58;;;12.75;;
46334;SDS011;32051;48.882;9.210;2024-02-28T04:13:45;19.63;;;13.95;;
46334;SDS011;32051;48.882;9.210;2024-02-28T04:16:10;22.67;;;12.20;;
46334;SDS011;32051;48.882;9.210;2024-02-28T04:18:36;17.63;;;12.52;;
46334;SDS011;32051;48.882;9.210;2024-02-28T04:21:03;19.13;;;13.70;;
46334;SDS011;32051;48.882;9.210;2024-02-28T04:23:29;15.43;;;12.77;;
46334;SDS011;32051;48.882;9.210;2024-02-28T04:25:55;19.30;;;12.40;;
46334;SDS011;32051;48.882;9.210;2024-02-28T04:28:21;18.75;;;12.55;;
46334;SDS011;32051;48.882;9.210;2024-02-28T04:30:47;16.92;;;13.13;;
46334;SDS011;32051;48.882;9.210;2024-02-28T04:33:13;16.55;;;12.55;;
46334;SDS011;32051;48.882;9.210;2024-02-28T04:35:40;20.58;;;11.93;;
46334;SDS011;32051;48.882;9.210;2024-02-28T04:38:06;20.50;;;11.93;;
46334;SDS011;32051;48.882;9.210;2024-02-28T04:40:32;17.67;;;12.52;;
46334;SDS011;32051;48.882;9.210;2024-02-28T04:42:58;16.75;;;13.07;;
46334;SDS011;32051;48.882;9.210;2024-02-28T04:45:24;17.98;;;12.05;;
46334;SDS011;32051;48.882;9.210;2024-02-28T04:47:50;17.45;;;12.07;;
46334;SDS011;32051;48.882;9.210;2024-02-28T04:50:17;15.30;;;12.55;;
46334;SDS011;32051;48.882;9.210;2024-02-28T04:52:43;15.65;;;11.35;;
46334;SDS011;32051;48.882;9.210;2024-02-28T04:55:10;14.52;;;11.73;;
46334;SDS011;32051;48.882;9.210;2024-02-28T04:57:37;17.33;;;11.43;;
46334;SDS011;32051;48.882;9.210;2024-02-28T05:00:03;16.80;;;12.90;;
46334;SDS011;32051;48.882;9.210;2024-02-28T05:02:29;14.73;;;11.00;;
46334;SDS011;32051;48.882;9.210;2024-02-28T05:04:55;13.55;;;10.50;;
46334;SDS011;32051;48.882;9.210;2024-02-28T05:07:23;17.45;;;10.98;;
46334;SDS011;32051;48.882;9.210;2024-02-28T05:09:49;19.05;;;11.60;;
46334;SDS011;32051;48.882;9.210;2024-02-28T05:12:15;11.75;;;10.57;;
46334;SDS011;32051;48.882;9.210;2024-02-28T05:14:41;18.17;;;11.20;;
46334;SDS011;32051;48.882;9.210;2024-02-28T05:17:07;16.92;;;11.70;;
46334;SDS011;32051;48.882;9.210;2024-02-28T05:19:34;19.88;;;12.65;;
46334;SDS011;32051;48.882;9.210;2024-02-28T05:22:00;14.25;;;11.05;;
46334;SDS011;32051;48.882;9.210;2024-02-28T05:24:26;13.95;;;11.45;;
46334;SDS011;32051;48.882;9.210;2024-02-28T05:26:52;19.85;;;11.93;;
46334;SDS011;32051;48.882;9.210;2024-02-28T05:29:18;17.75;;;12.85;;
46334;SDS011;32051;48.882;9.210;2024-02-28T05:31:44;22.05;;;12.25;;
46334;SDS011;32051;48.882;9.210;2024-02-28T05:34:11;14.60;;;11.60;;
46334;SDS011;32051;48.882;9.210;2024-02-28T05:36:37;16.30;;;11.57;;
46334;SDS011;32051;48.882;9.210;2024-02-28T05:39:03;15.02;;;11.45;;
46334;SDS011;32051;48.882;9.210;2024-02-28T05:41:30;16.52;;;12.13;;
46334;SDS011;32051;48.882;9.210;2024-02-28T05:43:57;18.20;;;12.23;;
46334;SDS011;32051;48.882;9.210;2024-02-28T05:46:23;17.85;;;11.88;;
46334;SDS011;32051;48.882;9.210;2024-02-28T05:48:49;19.73;;;12.90;;
46334;SDS011;32051;48.882;9.210;2024-02-28T05:51:15;16.33;;;11.55;;
46334;SDS011;32051;48.882;9.210;2024-02-28T05:53:42;18.23;;;12.02;;
46334;SDS011;32051;48.882;9.210;2024-02-28T05:56:08;16.90;;;11.95;;
46334;SDS011;32051;48.882;9.210;2024-02-28T05:58:45;21.60;;;11.80;;
46334;SDS011;32051;48.882;9.210;2024-02-28T06:01:13;25.98;;;13.98;;
46334;SDS011;32051;48.882;9.210;2024-02-28T06:03:40;16.63;;;11.65;;
46334;SDS011;32051;48.882;9.210;2024-02-28T06:06:06;18.35;;;12.52;;
46334;SDS011;32051;48.882;9.210;2024-02-28T06:08:33;25.45;;;14.50;;
46334;SDS011;32051;48.882;9.210;2024-02-28T06:10:59;21.75;;;12.63;;
46334;SDS011;32051;48.882;9.210;2024-02-28T06:13:26;19.95;;;13.20;;
46334;SDS011;32051;48.882;9.210;2024-02-28T06:15:52;26.13;;;13.57;;
46334;SDS011;32051;48.882;9.210;2024-02-28T06:18:18;17.90;;;13.77;;
46334;SDS011;32051;48.882;9.210;2024-02-28T06:20:44;19.58;;;13.90;;
46334;SDS011;32051;48.882;9.210;2024-02-28T06:23:10;28.48;;;14.80;;
46334;SDS011;32051;48.882;9.210;2024-02-28T06:25:36;17.23;;;12.88;;
46334;SDS011;32051;48.882;9.210;2024-02-28T06:28:03;20.95;;;14.13;;
46334;SDS011;32051;48.882;9.210;2024-02-28T06:30:31;18.05;;;12.57;;
46334;SDS011;32051;48.882;9.210;2024-02-28T06:33:01;17.48;;;12.60;;
46334;SDS011;32051;48.882;9.210;2024-02-28T06:35:27;18.48;;;13.20;;
46334;SDS011;32051;48.882;9.210;2024-02-28T06:37:53;20.17;;;13.80;;
46334;SDS011;32051;48.882;9.210;2024-02-28T06:40:20;18.25;;;12.90;;
46334;SDS011;32051;48.882;9.210;2024-02-28T06:42:46;20.15;;;13.15;;
46334;SDS011;32051;48.882;9.210;2024-02-28T06:45:13;20.63;;;13.63;;
46334;SDS011;32051;48.882;9.210;2024-02-28T06:47:39;18.05;;;12.82;;
46334;SDS011;32051;48.882;9.210;2024-02-28T06:50:06;19.33;;;13.10;;
46334;SDS011;32051;48.882;9.210;2024-02-28T06:52:33;20.35;;;13.07;;
46334;SDS011;32051;48.882;9.210;2024-02-28T06:55:00;22.00;;;14.43;;
46334;SDS011;32051;48.882;9.210;2024-02-28T06:57:28;18.55;;;13.20;;
46334;SDS011;32051;48.882;9.210;2024-02-28T06:59:54;20.10;;;13.85;;
46334;SDS011;32051;48.882;9.210;2024-02-28T07:02:20;22.50;;;14.15;;
46334;SDS011;32051;48.882;9.210;2024-02-28T07:04:46;21.20;;;13.32;;
46334;SDS011;32051;48.882;9.210;2024-02-28T07:07:12;19.08;;;14.27;;
46334;SDS011;32051;48.882;9.210;2024-02-28T07:09:38;16.35;;;13.85;;
46334;SDS011;32051;48.882;9.210;2024-02-28T07:12:05;21.90;;;12.77;;
46334;SDS011;32051;48.882;9.210;2024-02-28T07:14:31;17.00;;;13.43;;
46334;SDS011;32051;48.882;9.210;2024-02-28T07:16:57;18.70;;;14.63;;
46334;SDS011;32051;48.882;9.210;2024-02-28T07:19:23;20.85;;;13.45;;
46334;SDS011;32051;48.882;9.210;2024-02-28T07:21:50;21.75;;;13.43;;
46334;SDS011;32051;48.882;9.210;2024-02-28T07:24:16;23.90;;;15.65;;
46334;SDS011;32051;48.882;9.210;2024-02-28T07:26:42;21.80;;;14.65;;
46334;SDS011;32051;48.882;9.210;2024-02-28T07:29:08;22.80;;;14.07;;
46334;SDS011;32051;48.882;9.210;2024-02-28T07:31:34;19.90;;;14.65;;
46334;SDS011;32051;48.882;9.210;2024-02-28T07:34:00;22.75;;;14.88;;
46334;SDS011;32051;48.882;9.210;2024-02-28T07:36:26;20.95;;;14.88;;
46334;SDS011;32051;48.882;9.210;2024-02-28T07:38:52;25.02;;;15.27;;
46334;SDS011;32051;48.882;9.210;2024-02-28T07:41:18;28.52;;;13.95;;
46334;SDS011;32051;48.882;9.210;2024-02-28T07:43:45;22.75;;;14.35;;
46334;SDS011;32051;48.882;9.210;2024-02-28T07:46:11;23.05;;;14.60;;
46334;SDS011;32051;48.882;9.210;2024-02-28T07:48:38;21.45;;;15.35;;
46334;SDS011;32051;48.882;9.210;2024-02-28T07:51:05;23.60;;;15.32;;
46334;SDS011;32051;48.882;9.210;2024-02-28T07:53:31;21.92;;;14.77;;
46334;SDS011;32051;48.882;9.210;2024-02-28T07:55:57;21.20;;;14.05;;
46334;SDS011;32051;48.882;9.210;2024-02-28T07:58:23;23.70;;;15.15;;
46334;SDS011;32051;48.882;9.210;2024-02-28T08:00:52;23.17;;;14.18;;
46334;SDS011;32051;48.882;9.210;2024-02-28T08:03:18;20.33;;;14.52;;
46334;SDS011;32051;48.882;9.210;2024-02-28T08:05:44;20.52;;;14.60;;
46334;SDS011;32051;48.882;9.210;2024-02-28T08:08:11;23.60;;;15.25;;
46334;SDS011;32051;48.882;9.210;2024-02-28T08:10:37;26.77;;;15.15;;
46334;SDS011;32051;48.882;9.210;2024-02-28T08:13:04;21.20;;;15.45;;
46334;SDS011;32051;48.882;9.210;2024-02-28T08:15:30;23.95;;;14.55;;
46334;SDS011;32051;48.882;9.210;2024-02-28T08:17:56;29.95;;;16.13;;
46334;SDS011;32051;48.882;9.210;2024-02-28T08:20:23;20.10;;;14.23;;
46334;SDS011;32051;48.882;9.210;2024-02-28T08:22:49;19.65;;;14.15;;
46334;SDS011;32051;48.882;9.210;2024-02-28T08:25:17;24.83;;;15.05;;
46334;SDS011;32051;48.882;9.210;2024-02-28T08:27:43;20.35;;;14.35;;
46334;SDS011;32051;48.882;9.210;2024-02-28T08:30:09;23.05;;;14.57;;
46334;SDS011;32051;48.882;9.210;2024-02-28T08:32:36;21.38;;;14.68;;
46334;SDS011;32051;48.882;9.210;2024-02-28T08:35:02;22.48;;;15.07;;
46334;SDS011;32051;48.882;9.210;2024-02-28T08:37:28;22.00;;;14.82;;
46334;SDS011;32051;48.882;9.210;2024-02-28T08:39:54;23.48;;;15.50;;
46334;SDS011;32051;48.882;9.210;2024-02-28T08:42:26;21.70;;;15.18;;
46334;SDS011;32051;48.882;9.210;2024-02-28T08:44:53;23.38;;;15.68;;
46334;SDS011;32051;48.882;9.210;2024-02-28T08:47:24;22.57;;;13.50;;
46334;SDS011;32051;48.882;9.210;2024-02-28T08:49:51;21.85;;;13.77;;
46334;SDS011;32051;48.882;9.210;2024-02-28T08:52:17;21.95;;;14.75;;
46334;SDS011;32051;48.882;9.210;2024-02-28T08:54:43;22.13;;;14.30;;
46334;SDS011;32051;48.882;9.210;2024-02-28T08:57:09;21.70;;;14.32;;
46334;SDS011;32051;48.882;9.210;2024-02-28T08:59:35;21.92;;;14.30;;
46334;SDS011;32051;48.882;9.210;2024-02-28T09:02:01;18.20;;;13.13;;
46334;SDS011;32051;48.882;9.210;2024-02-28T09:04:28;18.98;;;14.38;;
46334;SDS011;32051;48.882;9.210;2024-02-28T09:06:54;26.73;;;15.68;;
46334;SDS011;32051;48.882;9.210;2024-02-28T09:09:20;20.35;;;13.70;;
46334;SDS011;32051;48.882;9.210;2024-02-28T09:11:46;27.90;;;14.00;;
46334;SDS011;32051;48.882;9.210;2024-02-28T09:14:13;21.45;;;14.52;;
46334;SDS011;32051;48.882;9.210;2024-02-28T09:16:39;24.05;;;13.85;;
46334;SDS011;32051;48.882;9.210;2024-02-28T09:19:05;26.10;;;14.18;;
46334;SDS011;32051;48.882;9.210;2024-02-28T09:21:31;22.88;;;15.18;;
46334;SDS011;32051;48.882;9.210;2024-02-28T09:23:57;22.08;;;14.70;;
46334;SDS011;32051;48.882;9.210;2024-02-28T09:26:23;20.48;;;14.35;;
46334;SDS011;32051;48.882;9.210;2024-02-28T09:28:49;21.20;;;13.98;;
46334;SDS011;32051;48.882;9.210;2024-02-28T09:31:15;23.75;;;15.38;;
46334;SDS011;32051;48.882;9.210;2024-02-28T09:33:41;25.23;;;14.73;;
46334;SDS011;32051;48.882;9.210;2024-02-28T09:36:07;20.35;;;14.40;;
46334;SDS011;32051;48.882;9.210;2024-02-28T09:38:33;18.77;;;14.30;;
46334;SDS011;32051;48.882;9.210;2024-02-28T09:41:00;24.55;;;16.25;;
46334;SDS011;32051;48.882;9.210;2024-02-28T09:43:30;18.20;;;14.27;;
46334;SDS011;32051;48.882;9.210;2024-02-28T09:46:03;21.08;;;14.30;;
46334;SDS011;32051;48.882;9.210;2024-02-28T09:48:30;21.50;;;15.70;;
46334;SDS011;32051;48.882;9.210;2024-02-28T09:50:57;22.13;;;14.55;;
46334;SDS011;32051;48.882;9.210;2024-02-28T09:53:23;18.55;;;13.55;;
46334;SDS011;32051;48.882;9.210;2024-02-28T09:55:50;21.65;;;14.50;;
46334;SDS011;32051;48.882;9.210;2024-02-28T09:58:17;25.48;;;14.55;;
46334;SDS011;32051;48.882;9.210;2024-02-28T10:00:44;22.23;;;14.13;;
46334;SDS011;32051;48.882;9.210;2024-02-28T10:03:11;21.05;;;14.52;;
46334;SDS011;32051;48.882;9.210;2024-02-28T10:05:37;20.23;;;13.27;;
46334;SDS011;32051;48.882;9.210;2024-02-28T10:08:04;24.83;;;14.35;;
46334;SDS011;32051;48.882;9.210;2024-02-28T10:10:30;20.67;;;13.98;;
46334;SDS011;32051;48.882;9.210;2024-02-28T10:12:57;22.60;;;15.18;;
46334;SDS011;32051;48.882;9.210;2024-02-28T10:15:26;16.90;;;14.15;;
46334;SDS011;32051;48.882;9.210;2024-02-28T10:17:52;19.98;;;14.02;;
46334;SDS011;32051;48.882;9.210;2024-02-28T10:20:19;20.13;;;14.10;;
46334;SDS011;32051;48.882;9.210;2024-02-28T10:22:45;19.67;;;13.32;;
46334;SDS011;32051;48.882;9.210;2024-02-28T10:25:11;24.25;;;15.38;;
46334;SDS011;32051;48.882;9.210;2024-02-28T10:27:37;17.92;;;12.80;;
46334;SDS011;32051;48.882;9.210;2024-02-28T10:30:03;21.83;;;15.32;;
46334;SDS011;32051;48.882;9.210;2024-02-28T10:32:33;21.42;;;14.30;;
46334;SDS011;32051;48.882;9.210;2024-02-28T10:35:01;24.23;;;15.35;;
46334;SDS011;32051;48.882;9.210;2024-02-28T10:37:28;22.52;;;14.88;;
46334;SDS011;32051;48.882;9.210;2024-02-28T10:39:56;18.17;;;13.60;;
46334;SDS011;32051;48.882;9.210;2024-02-28T10:42:22;21.40;;;13.25;;
46334;SDS011;32051;48.882;9.210;2024-02-28T10:44:49;19.95;;;14.38;;
46334;SDS011;32051;48.882;9.210;2024-02-28T10:47:17;22.52;;;15.23;;
46334;SDS011;32051;48.882;9.210;2024-02-28T10:49:44;20.48;;;14.15;;
46334;SDS011;32051;48.882;9.210;2024-02-28T10:52:10;20.50;;;13.90;;
46334;SDS011;32051;48.882;9.210;2024-02-28T10:54:39;23.70;;;14.73;;
46334;SDS011;32051;48.882;9.210;2024-02-28T10:57:10;21.50;;;14.68;;
46334;SDS011;32051;48.882;9.210;2024-02-28T10:59:38;21.92;;;14.18;;
46334;SDS011;32051;48.882;9.210;2024-02-28T11:02:06;21.60;;;15.63;;
46334;SDS011;32051;48.882;9.210;2024-02-28T11:04:32;24.65;;;15.75;;
46334;SDS011;32051;48.882;9.210;2024-02-28T11:07:00;23.55;;;15.27;;
46334;SDS011;32051;48.882;9.210;2024-02-28T11:09:28;18.67;;;13.32;;
46334;SDS011;32051;48.882;9.210;2024-02-28T11:11:56;22.83;;;13.93;;
46334;SDS011;32051;48.882;9.210;2024-02-28T11:14:22;21.70;;;13.88;;
46334;SDS011;32051;48.882;9.210;2024-02-28T11:17:00;18.15;;;13.73;;
46334;SDS011;32051;48.882;9.210;2024-02-28T11:19:27;20.35;;;14.07;;
46334;SDS011;32051;48.882;9.210;2024-02-28T11:21:55;20.15;;;13.70;;
46334;SDS011;32051;48.882;9.210;2024-02-28T11:24:24;24.25;;;14.15;;
46334;SDS011;32051;48.882;9.210;2024-02-28T11:26:52;27.40;;;14.15;;
46334;SDS011;32051;48.882;9.210;2024-02-28T11:29:22;25.65;;;17.17;;
46334;SDS011;32051;48.882;9.210;2024-02-28T11:31:48;22.98;;;15.43;;
46334;SDS011;32051;48.882;9.210;2024-02-28T11:34:14;23.33;;;14.52;;
46334;SDS011;32051;48.882;9.210;2024-02-28T11:36:40;19.00;;;13.85;;
46334;SDS011;32051;48.882;9.210;2024-02-28T11:39:06;22.30;;;14.27;;
46334;SDS011;32051;48.882;9.210;2024-02-28T11:41:32;23.92;;;14.77;;
46334;SDS011;32051;48.882;9.210;2024-02-28T11:43:59;22.63;;;14.23;;
46334;SDS011;32051;48.882;9.210;2024-02-28T11:46:26;17.42;;;13.77;;
46334;SDS011;32051;48.882;9.210;2024-02-28T11:48:52;22.45;;;13.30;;
46334;SDS011;32051;48.882;9.210;2024-02-28T11:51:20;21.05;;;13.75;;
46334;SDS011;32051;48.882;9.210;2024-02-28T11:53:46;20.67;;;13.23;;
46334;SDS011;32051;48.882;9.210;2024-02-28T11:56:12;22.45;;;14.15;;
46334;SDS011;32051;48.882;9.210;2024-02-28T11:58:51;25.48;;;15.75;;
46334;SDS011;32051;48.882;9.210;2024-02-28T12:01:17;25.25;;;13.95;;
46334;SDS011;32051;48.882;9.210;2024-02-28T12:03:46;20.85;;;14.20;;
46334;SDS011;32051;48.882;9.210;2024-02-28T12:06:12;25.95;;;15.80;;
46334;SDS011;32051;48.882;9.210;2024-02-28T12:08:38;27.45;;;15.35;;
46334;SDS011;32051;48.882;9.210;2024-02-28T12:11:07;24.63;;;15.07;;
46334;SDS011;32051;48.882;9.210;2024-02-28T12:13:36;19.45;;;14.30;;
46334;SDS011;32051;48.882;9.210;2024-02-28T12:16:02;27.10;;;14.45;;
46334;SDS011;32051;48.882;9.210;2024-02-28T12:18:29;23.42;;;14.73;;
46334;SDS011;32051;48.882;9.210;2024-02-28T12:20:55;22.00;;;14.55;;
46334;SDS011;32051;48.882;9.210;2024-02-28T12:23:22;16.50;;;13.63;;
46334;SDS011;32051;48.882;9.210;2024-02-28T12:25:48;23.33;;;13.27;;
46334;SDS011;32051;48.882;9.210;2024-02-28T12:28:14;21.58;;;13.65;;
46334;SDS011;32051;48.882;9.210;2024-02-28T12:30:41;25.08;;;15.02;;
46334;SDS011;32051;48.882;9.210;2024-02-28T12:33:07;22.08;;;14.82;;
46334;SDS011;32051;48.882;9.210;2024-02-28T12:35:34;21.83;;;13.68;;
46334;SDS011;32051;48.882;9.210;2024-02-28T12:38:00;22.55;;;14.10;;
46334;SDS011;32051;48.882;9.210;2024-02-28T12:40:26;29.75;;;15.15;;
46334;SDS011;32051;48.882;9.210;2024-02-28T12:42:52;20.92;;;14.60;;
46334;SDS011;32051;48.882;9.210;2024-02-28T12:45:18;26.80;;;15.05;;
46334;SDS011;32051;48.882;9.210;2024-02-28T12:47:44;30.25;;;15.77;;
46334;SDS011;32051;48.882;9.210;2024-02-28T12:50:10;27.10;;;14.65;;
46334;SDS011;32051;48.882;9.210;2024-02-28T12:52:36;22.27;;;15.07;;
46334;SDS011;32051;48.882;9.210;2024-02-28T12:55:02;22.77;;;15.13;;
46334;SDS011;32051;48.882;9.210;2024-02-28T12:57:29;18.25;;;13.20;;
46334;SDS011;32051;48.882;9.210;2024-02-28T12:59:55;25.25;;;14.45;;
46334;SDS011;32051;48.882;9.210;2024-02-28T13:02:21;20.98;;;13.60;;
46334;SDS011;32051;48.882;9.210;2024-02-28T13:04:47;20.58;;;14.52;;
46334;SDS011;32051;48.882;9.210;2024-02-28T13:07:14;22.50;;;14.50;;
46334;SDS011;32051;48.882;9.210;2024-02-28T13:09:41;28.95;;;16.00;;
46334;SDS011;32051;48.882;9.210;2024-02-28T13:12:07;19.27;;;12.85;;
46334;SDS011;32051;48.882;9.210;2024-02-28T13:14:33;24.48;;;13.65;;
46334;SDS011;32051;48.882;9.210;2024-02-28T13:17:00;20.38;;;12.02;;
46334;SDS011;32051;48.882;9.210;2024-02-28T13:19:26;20.55;;;12.48;;
46334;SDS011;32051;48.882;9.210;2024-02-28T13:21:52;17.20;;;12.02;;
46334;SDS011;32051;48.882;9.210;2024-02-28T13:24:18;23.75;;;13.02;;
46334;SDS011;32051;48.882;9.210;2024-02-28T13:26:44;22.50;;;12.90;;
46334;SDS011;32051;48.882;9.210;2024-02-28T13:29:10;17.88;;;13.13;;
46334;SDS011;32051;48.882;9.210;2024-02-28T13:31:36;20.38;;;14.27;;
46334;SDS011;32051;48.882;9.210;2024-02-28T13:34:02;20.77;;;13.57;;
46334;SDS011;32051;48.882;9.210;2024-02-28T13:36:29;20.60;;;12.85;;
46334;SDS011;32051;48.882;9.210;2024-02-28T13:38:57;20.17;;;12.27;;
46334;SDS011;32051;48.882;9.210;2024-02-28T13:41:23;19.95;;;13.75;;
46334;SDS011;32051;48.882;9.210;2024-02-28T13:43:49;20.05;;;13.35;;
46334;SDS011;32051;48.882;9.210;2024-02-28T13:46:15;17.88;;;12.77;;
46334;SDS011;32051;48.882;9.210;2024-02-28T13:48:44;19.02;;;12.77;;
46334;SDS011;32051;48.882;9.210;2024-02-28T13:51:10;18.40;;;12.85;;
46334;SDS011;32051;48.882;9.210;2024-02-28T13:53:36;19.38;;;12.35;;
46334;SDS011;32051;48.882;9.210;2024-02-28T13:56:03;17.25;;;11.57;;
46334;SDS011;32051;48.882;9.210;2024-02-28T13:58:30;20.73;;;12.63;;
46334;SDS011;32051;48.882;9.210;2024-02-28T14:00:56;18.45;;;11.95;;
46334;SDS011;32051;48.882;9.210;2024-02-28T14:03:22;24.83;;;13.25;;
46334;SDS011;32051;48.882;9.210;2024-02-28T14:05:50;14.88;;;11.05;;
46334;SDS011;32051;48.882;9.210;2024-02-28T14:08:17;16.55;;;11.60;;
46334;SDS011;32051;48.882;9.210;2024-02-28T14:10:43;14.27;;;10.88;;
46334;SDS011;32051;48.882;9.210;2024-02-28T14:13:09;16.63;;;12.05;;
46334;SDS011;32051;48.882;9.210;2024-02-28T14:15:37;10.52;;;9.43;;